createdAt,value
2019-03-28T00:00:46.339Z,0.00
2019-03-28T00:01:46.268Z,0.00
2019-03-28T00:02:46.248Z,0.00
2019-03-28T00:03:46.254Z,0.00
2019-03-28T00:04:46.219Z,0.00
2019-03-28T00:05:46.245Z,0.00
2019-03-28T00:06:46.217Z,0.00
2019-03-28T00:07:46.213Z,0.00
2019-03-28T00:08:46.231Z,0.00
2019-03-28T00:09:46.165Z,0.00
2019-03-28T00:10:46.184Z,0.00
2019-03-28T00:11:46.153Z,0.00
2019-03-28T00:12:46.155Z,0.00
2019-03-28T00:13:46.141Z,0.00
2019-03-28T00:14:46.124Z,0.00
2019-03-28T00:15:46.136Z,0.00
2019-03-28T00:16:46.090Z,0.00
2019-03-28T00:17:46.080Z,0.00
2019-03-28T00:18:46.083Z,0.00
2019-03-28T00:19:46.070Z,0.00
2019-03-28T00:20:46.093Z,0.00
2019-03-28T00:21:46.034Z,0.00
2019-03-28T00:22:46.030Z,0.00
2019-03-28T00:23:46.039Z,0.00
2019-03-28T00:24:46.024Z,0.00
2019-03-28T00:25:46.022Z,0.00
2019-03-28T00:26:46.007Z,0.00
2019-03-28T00:27:46.320Z,0.00
2019-03-28T00:28:45.966Z,0.00
2019-03-28T00:29:45.975Z,0.00
2019-03-28T00:30:45.985Z,0.00
2019-03-28T00:31:47.922Z,0.00
2019-03-28T00:32:45.912Z,0.00
2019-03-28T00:33:45.927Z,0.00
2019-03-28T00:34:45.910Z,0.00
2019-03-28T00:35:45.927Z,0.00
2019-03-28T00:36:45.880Z,0.00
2019-03-28T00:37:45.892Z,0.00
2019-03-28T00:38:45.866Z,0.00
2019-03-28T00:39:45.843Z,0.00
2019-03-28T00:40:45.861Z,0.00
2019-03-28T00:41:45.850Z,0.00
2019-03-28T00:42:45.823Z,0.00
2019-03-28T00:43:45.840Z,0.00
2019-03-28T00:44:45.802Z,0.00
2019-03-28T00:45:45.835Z,0.00
2019-03-28T00:46:46.227Z,0.00
2019-03-28T00:47:45.764Z,0.00
2019-03-28T00:48:45.781Z,0.00
2019-03-28T00:49:45.753Z,0.00
2019-03-28T00:50:45.752Z,0.00
2019-03-28T00:51:45.739Z,0.00
2019-03-28T00:52:45.713Z,0.00
2019-03-28T00:53:45.710Z,0.00
2019-03-28T00:54:46.159Z,0.00
2019-03-28T00:55:45.672Z,0.00
2019-03-28T00:56:47.594Z,0.00
2019-03-28T00:57:45.653Z,0.00
2019-03-28T00:58:45.643Z,0.00
2019-03-28T00:59:45.623Z,0.00
2019-03-28T01:00:45.641Z,0.00
2019-03-28T01:01:45.657Z,0.00
2019-03-28T01:02:46.075Z,0.00
2019-03-28T01:03:45.578Z,0.00
2019-03-28T01:04:45.582Z,0.00
2019-03-28T01:05:45.568Z,0.00
2019-03-28T01:06:45.573Z,0.00
2019-03-28T01:07:45.538Z,0.00
2019-03-28T01:08:45.529Z,0.00
2019-03-28T01:09:45.547Z,0.00
2019-03-28T01:10:45.513Z,0.00
2019-03-28T01:11:45.528Z,0.00
2019-03-28T01:12:45.502Z,0.00
2019-03-28T01:13:45.479Z,0.00
2019-03-28T01:14:45.460Z,0.00
2019-03-28T01:15:45.469Z,0.00
2019-03-28T01:16:45.471Z,0.00
2019-03-28T01:17:45.467Z,0.00
2019-03-28T01:18:45.505Z,0.00
2019-03-28T01:19:45.433Z,0.00
2019-03-28T01:20:45.421Z,0.00
2019-03-28T01:21:45.429Z,0.00
2019-03-28T01:22:45.388Z,0.00
2019-03-28T01:23:46.084Z,0.00
2019-03-28T01:24:45.369Z,0.00
2019-03-28T01:25:45.365Z,0.00
2019-03-28T01:26:56.556Z,0.00
2019-03-28T01:27:46.330Z,0.00
2019-03-28T01:28:45.304Z,0.00
2019-03-28T01:29:45.305Z,0.00
2019-03-28T01:30:45.294Z,0.00
2019-03-28T01:31:45.315Z,0.00
2019-03-28T01:32:45.270Z,0.00
2019-03-28T01:33:45.257Z,0.00
2019-03-28T01:34:45.241Z,0.00
2019-03-28T01:35:45.224Z,0.00
2019-03-28T01:36:45.249Z,0.00
2019-03-28T01:37:45.219Z,0.00
2019-03-28T01:38:45.214Z,0.00
2019-03-28T01:39:45.203Z,0.00
2019-03-28T01:40:45.193Z,0.00
2019-03-28T01:41:45.184Z,0.00
2019-03-28T01:42:45.178Z,0.00
2019-03-28T01:43:45.158Z,0.00
2019-03-28T01:44:45.145Z,0.00
2019-03-28T01:45:45.125Z,0.00
2019-03-28T01:46:45.140Z,0.00
2019-03-28T01:47:45.120Z,0.00
2019-03-28T01:48:45.125Z,0.00
2019-03-28T01:49:45.086Z,0.00
2019-03-28T01:50:45.070Z,0.00
2019-03-28T01:51:45.071Z,0.00
2019-03-28T01:52:45.041Z,0.00
2019-03-28T01:53:45.041Z,0.00
2019-03-28T01:54:45.050Z,0.00
2019-03-28T01:55:45.041Z,0.00
2019-03-28T01:56:45.001Z,0.00
2019-03-28T01:57:45.030Z,0.00
2019-03-28T01:58:44.982Z,0.00
2019-03-28T01:59:44.992Z,0.00
2019-03-28T02:00:44.955Z,0.00
2019-03-28T02:01:44.956Z,0.00
2019-03-28T02:02:45.331Z,0.00
2019-03-28T02:03:44.944Z,0.00
2019-03-28T02:04:44.920Z,0.00
2019-03-28T02:05:44.913Z,0.00
2019-03-28T02:06:44.905Z,0.00
2019-03-28T02:07:44.917Z,0.00
2019-03-28T02:08:44.871Z,0.00
2019-03-28T02:09:44.882Z,0.00
2019-03-28T02:10:44.861Z,0.00
2019-03-28T02:11:44.840Z,0.00
2019-03-28T02:12:44.860Z,0.00
2019-03-28T02:13:44.815Z,0.00
2019-03-28T02:14:44.808Z,0.00
2019-03-28T02:15:44.787Z,0.00
2019-03-28T02:16:44.771Z,0.00
2019-03-28T02:17:44.801Z,0.00
2019-03-28T02:18:44.762Z,0.00
2019-03-28T02:19:45.193Z,0.00
2019-03-28T02:20:44.741Z,0.00
2019-03-28T02:21:44.723Z,0.00
2019-03-28T02:22:45.177Z,0.00
2019-03-28T02:23:44.716Z,0.00
2019-03-28T02:24:44.693Z,0.00
2019-03-28T02:25:44.697Z,0.00
2019-03-28T02:26:44.673Z,0.00
2019-03-28T02:27:44.681Z,0.00
2019-03-28T02:28:44.672Z,0.00
2019-03-28T02:29:44.636Z,0.00
2019-03-28T02:30:44.627Z,0.00
2019-03-28T02:31:44.610Z,0.00
2019-03-28T02:32:44.641Z,0.00
2019-03-28T02:33:44.633Z,0.00
2019-03-28T02:34:48.643Z,0.00
2019-03-28T02:35:44.602Z,0.00
2019-03-28T02:36:44.600Z,0.00
2019-03-28T02:37:44.593Z,0.00
2019-03-28T02:38:44.543Z,0.00
2019-03-28T02:39:44.539Z,0.00
2019-03-28T02:40:44.524Z,0.00
2019-03-28T02:41:44.512Z,0.00
2019-03-28T02:42:44.544Z,0.00
2019-03-28T02:43:45.524Z,0.00
2019-03-28T02:44:44.494Z,0.00
2019-03-28T02:45:44.475Z,0.00
2019-03-28T02:46:44.463Z,0.00
2019-03-28T02:47:44.477Z,0.00
2019-03-28T02:48:44.444Z,0.00
2019-03-28T02:49:45.224Z,0.00
2019-03-28T02:50:44.418Z,0.00
2019-03-28T02:51:44.400Z,0.00
2019-03-28T02:52:44.420Z,0.00
2019-03-28T02:53:44.385Z,0.00
2019-03-28T02:54:44.369Z,0.00
2019-03-28T02:55:44.371Z,0.00
2019-03-28T02:56:44.360Z,0.00
2019-03-28T02:57:44.381Z,0.00
2019-03-28T02:58:44.338Z,0.00
2019-03-28T02:59:44.333Z,0.00
2019-03-28T03:00:44.313Z,0.00
2019-03-28T03:01:44.307Z,0.00
2019-03-28T03:02:44.309Z,0.00
2019-03-28T03:03:44.311Z,0.00
2019-03-28T03:04:44.278Z,0.00
2019-03-28T03:05:44.256Z,0.00
2019-03-28T03:06:44.245Z,0.00
2019-03-28T03:07:44.235Z,0.00
2019-03-28T03:08:44.248Z,0.00
2019-03-28T03:09:44.217Z,0.00
2019-03-28T03:10:44.287Z,0.00
2019-03-28T03:11:44.209Z,0.00
2019-03-28T03:12:44.181Z,0.00
2019-03-28T03:13:44.265Z,0.00
2019-03-28T03:14:44.185Z,0.00
2019-03-28T03:15:44.141Z,0.00
2019-03-28T03:16:44.144Z,0.00
2019-03-28T03:17:44.125Z,0.00
2019-03-28T03:18:44.258Z,0.00
2019-03-28T03:19:44.101Z,0.00
2019-03-28T03:20:44.108Z,0.00
2019-03-28T03:21:44.091Z,0.00
2019-03-28T03:22:44.082Z,0.00
2019-03-28T03:23:44.080Z,0.00
2019-03-28T03:24:44.030Z,0.00
2019-03-28T03:25:44.057Z,0.00
2019-03-28T03:26:44.023Z,0.00
2019-03-28T03:27:56.861Z,0.00
2019-03-28T03:28:45.040Z,0.00
2019-03-28T03:29:43.996Z,0.00
2019-03-28T03:30:43.979Z,0.00
2019-03-28T03:31:43.970Z,0.00
2019-03-28T03:32:43.967Z,0.00
2019-03-28T03:33:43.995Z,0.00
2019-03-28T03:34:43.937Z,0.00
2019-03-28T03:35:43.930Z,0.00
2019-03-28T03:36:43.930Z,0.00
2019-03-28T03:37:43.898Z,0.00
2019-03-28T03:38:43.927Z,0.00
2019-03-28T03:39:43.891Z,0.00
2019-03-28T03:40:43.875Z,0.00
2019-03-28T03:41:44.788Z,0.00
2019-03-28T03:42:43.861Z,0.00
2019-03-28T03:43:43.863Z,0.00
2019-03-28T03:44:43.832Z,0.00
2019-03-28T03:45:43.803Z,0.00
2019-03-28T03:46:43.811Z,0.00
2019-03-28T03:47:43.792Z,0.00
2019-03-28T03:48:43.808Z,0.00
2019-03-28T03:49:43.797Z,0.00
2019-03-28T03:50:43.756Z,0.00
2019-03-28T03:51:46.483Z,0.00
2019-03-28T03:52:43.753Z,0.00
2019-03-28T03:53:43.748Z,0.00
2019-03-28T03:54:43.738Z,0.00
2019-03-28T03:55:43.698Z,0.00
2019-03-28T03:56:43.708Z,0.00
2019-03-28T03:57:43.728Z,0.00
2019-03-28T03:58:43.721Z,0.00
2019-03-28T03:59:43.673Z,0.00
2019-03-28T04:00:43.687Z,0.00
2019-03-28T04:01:44.517Z,0.00
2019-03-28T04:02:43.625Z,0.00
2019-03-28T04:03:43.645Z,0.00
2019-03-28T04:04:43.628Z,0.00
2019-03-28T04:05:43.620Z,0.00
2019-03-28T04:06:43.630Z,0.00
2019-03-28T04:07:43.584Z,0.00
2019-03-28T04:08:43.605Z,0.00
2019-03-28T04:09:43.573Z,0.00
2019-03-28T04:10:43.569Z,0.00
2019-03-28T04:11:43.544Z,0.00
2019-03-28T04:12:43.535Z,0.00
2019-03-28T04:13:43.554Z,0.00
2019-03-28T04:14:43.518Z,0.00
2019-03-28T04:15:43.510Z,0.00
2019-03-28T04:16:43.488Z,0.00
2019-03-28T04:17:43.496Z,0.00
2019-03-28T04:18:43.575Z,0.00
2019-03-28T04:19:43.477Z,0.00
2019-03-28T04:20:43.454Z,0.00
2019-03-28T04:21:43.799Z,0.00
2019-03-28T04:22:43.445Z,0.00
2019-03-28T04:23:43.424Z,0.00
2019-03-28T04:24:43.425Z,0.00
2019-03-28T04:25:43.404Z,0.00
2019-03-28T04:26:43.380Z,0.00
2019-03-28T04:27:43.370Z,0.00
2019-03-28T04:28:43.369Z,0.00
2019-03-28T04:29:43.376Z,0.00
2019-03-28T04:30:43.339Z,0.00
2019-03-28T04:31:43.330Z,0.00
2019-03-28T04:32:43.313Z,0.00
2019-03-28T04:33:43.300Z,0.00
2019-03-28T04:34:43.336Z,0.00
2019-03-28T04:35:43.289Z,0.00
2019-03-28T04:36:43.290Z,0.00
2019-03-28T04:37:43.281Z,0.00
2019-03-28T04:38:43.247Z,0.00
2019-03-28T04:39:43.262Z,0.00
2019-03-28T04:40:43.225Z,0.00
2019-03-28T04:41:43.217Z,0.00
2019-03-28T04:42:45.844Z,0.00
2019-03-28T04:43:43.216Z,0.00
2019-03-28T04:44:43.195Z,0.00
2019-03-28T04:45:43.171Z,0.00
2019-03-28T04:46:43.184Z,0.00
2019-03-28T04:47:43.147Z,0.00
2019-03-28T04:48:43.142Z,0.00
2019-03-28T04:49:43.221Z,0.00
2019-03-28T04:50:43.142Z,0.00
2019-03-28T04:51:43.105Z,0.00
2019-03-28T04:52:43.096Z,0.00
2019-03-28T04:53:43.112Z,0.00
2019-03-28T04:54:43.102Z,0.00
2019-03-28T04:55:43.087Z,0.00
2019-03-28T04:56:43.061Z,0.00
2019-03-28T04:57:43.046Z,0.00
2019-03-28T04:58:44.696Z,0.00
2019-03-28T04:59:43.072Z,0.00
2019-03-28T05:00:43.010Z,0.00
2019-03-28T05:01:43.000Z,0.00
2019-03-28T05:02:45.907Z,0.00
2019-03-28T05:03:43.011Z,0.00
2019-03-28T05:04:43.011Z,0.00
2019-03-28T05:05:42.962Z,0.00
2019-03-28T05:06:42.960Z,0.00
2019-03-28T05:07:42.952Z,0.00
2019-03-28T05:08:42.952Z,0.00
2019-03-28T05:09:42.941Z,0.00
2019-03-28T05:10:42.916Z,0.00
2019-03-28T05:11:42.897Z,0.00
2019-03-28T05:12:42.907Z,0.00
2019-03-28T05:13:42.873Z,0.00
2019-03-28T05:14:42.882Z,0.00
2019-03-28T05:15:42.852Z,0.00
2019-03-28T05:16:42.846Z,0.00
2019-03-28T05:17:42.834Z,0.00
2019-03-28T05:18:42.816Z,0.00
2019-03-28T05:19:42.859Z,0.00
2019-03-28T05:20:42.781Z,5.62
2019-03-28T05:21:42.789Z,5.62
2019-03-28T05:22:42.797Z,5.62
2019-03-28T05:23:42.769Z,5.62
2019-03-28T05:24:42.753Z,5.62
2019-03-28T05:25:42.777Z,5.62
2019-03-28T05:26:42.727Z,5.62
2019-03-28T05:27:42.729Z,5.62
2019-03-28T05:28:42.707Z,5.62
2019-03-28T05:29:42.701Z,5.62
2019-03-28T05:30:43.251Z,5.62
2019-03-28T05:31:42.707Z,5.62
2019-03-28T05:32:42.679Z,5.62
2019-03-28T05:33:42.670Z,11.25
2019-03-28T05:34:42.650Z,11.25
2019-03-28T05:35:42.670Z,11.25
2019-03-28T05:36:42.619Z,11.25
2019-03-28T05:37:42.630Z,11.25
2019-03-28T05:38:42.600Z,11.25
2019-03-28T05:39:42.578Z,11.25
2019-03-28T05:40:42.623Z,11.25
2019-03-28T05:41:42.575Z,16.88
2019-03-28T05:42:42.563Z,16.88
2019-03-28T05:43:45.356Z,16.88
2019-03-28T05:44:42.553Z,16.88
2019-03-28T05:45:42.552Z,16.88
2019-03-28T05:46:42.535Z,22.50
2019-03-28T05:47:42.498Z,22.50
2019-03-28T05:48:42.507Z,22.50
2019-03-28T05:49:42.488Z,22.50
2019-03-28T05:50:42.486Z,22.50
2019-03-28T05:51:42.479Z,22.50
2019-03-28T05:52:42.469Z,22.50
2019-03-28T05:53:43.972Z,22.50
2019-03-28T05:54:42.440Z,22.50
2019-03-28T05:55:42.461Z,22.50
2019-03-28T05:56:42.407Z,22.50
2019-03-28T05:57:42.404Z,22.50
2019-03-28T05:58:42.384Z,28.12
2019-03-28T05:59:42.384Z,28.12
2019-03-28T06:00:42.414Z,28.12
2019-03-28T06:01:42.355Z,28.12
2019-03-28T06:02:42.346Z,28.12
2019-03-28T06:03:42.476Z,28.12
2019-03-28T06:04:42.340Z,33.75
2019-03-28T06:05:42.340Z,33.75
2019-03-28T06:06:42.299Z,33.75
2019-03-28T06:07:42.286Z,33.75
2019-03-28T06:08:42.309Z,39.38
2019-03-28T06:09:42.291Z,39.38
2019-03-28T06:10:42.285Z,39.38
2019-03-28T06:11:42.247Z,45.00
2019-03-28T06:12:42.245Z,45.00
2019-03-28T06:13:42.241Z,50.62
2019-03-28T06:14:42.222Z,50.62
2019-03-28T06:15:42.257Z,50.62
2019-03-28T06:16:42.202Z,56.25
2019-03-28T06:17:42.205Z,56.25
2019-03-28T06:18:42.201Z,56.25
2019-03-28T06:19:42.170Z,61.88
2019-03-28T06:20:42.180Z,67.50
2019-03-28T06:21:42.130Z,67.50
2019-03-28T06:22:42.140Z,67.50
2019-03-28T06:23:42.121Z,73.12
2019-03-28T06:24:42.096Z,73.12
2019-03-28T06:25:42.151Z,78.75
2019-03-28T06:26:42.085Z,78.75
2019-03-28T06:27:42.067Z,78.75
2019-03-28T06:28:42.103Z,84.38
2019-03-28T06:29:42.068Z,84.38
2019-03-28T06:30:42.057Z,84.38
2019-03-28T06:31:54.315Z,90.00
2019-03-28T06:32:43.647Z,90.00
2019-03-28T06:33:42.015Z,95.62
2019-03-28T06:34:42.475Z,95.62
2019-03-28T06:35:42.052Z,101.25
2019-03-28T06:36:41.979Z,101.25
2019-03-28T06:37:41.977Z,106.88
2019-03-28T06:38:41.947Z,112.50
2019-03-28T06:39:41.962Z,112.50
2019-03-28T06:40:41.983Z,118.12
2019-03-28T06:41:44.249Z,118.12
2019-03-28T06:42:41.953Z,129.38
2019-03-28T06:43:42.260Z,135.00
2019-03-28T06:44:41.892Z,146.25
2019-03-28T06:45:41.991Z,146.25
2019-03-28T06:46:41.883Z,151.88
2019-03-28T06:47:41.864Z,157.50
2019-03-28T06:48:41.855Z,163.12
2019-03-28T06:49:41.843Z,163.12
2019-03-28T06:50:41.904Z,163.12
2019-03-28T06:51:41.867Z,168.75
2019-03-28T06:52:41.793Z,168.75
2019-03-28T06:53:41.807Z,174.38
2019-03-28T06:54:41.811Z,174.38
2019-03-28T06:55:41.799Z,174.38
2019-03-28T06:56:41.768Z,180.00
2019-03-28T06:57:41.757Z,185.62
2019-03-28T06:58:41.743Z,196.88
2019-03-28T06:59:41.724Z,202.50
2019-03-28T07:00:41.746Z,208.12
2019-03-28T07:01:41.726Z,213.75
2019-03-28T07:02:41.685Z,225.00
2019-03-28T07:03:41.677Z,230.62
2019-03-28T07:04:41.693Z,236.25
2019-03-28T07:05:41.700Z,241.88
2019-03-28T07:06:41.663Z,247.50
2019-03-28T07:07:41.637Z,253.12
2019-03-28T07:08:41.629Z,264.38
2019-03-28T07:09:41.623Z,270.00
2019-03-28T07:10:41.638Z,275.62
2019-03-28T07:11:41.603Z,275.62
2019-03-28T07:12:41.600Z,270.00
2019-03-28T07:13:41.598Z,275.62
2019-03-28T07:14:41.579Z,292.50
2019-03-28T07:15:41.599Z,315.00
2019-03-28T07:16:41.566Z,331.88
2019-03-28T07:17:41.559Z,326.25
2019-03-28T07:18:41.533Z,331.88
2019-03-28T07:19:41.499Z,331.88
2019-03-28T07:20:41.498Z,337.50
2019-03-28T07:21:41.534Z,343.12
2019-03-28T07:22:41.474Z,354.38
2019-03-28T07:23:41.464Z,365.62
2019-03-28T07:24:41.485Z,382.50
2019-03-28T07:25:41.454Z,393.75
2019-03-28T07:26:41.460Z,416.25
2019-03-28T07:27:41.459Z,455.62
2019-03-28T07:28:41.413Z,444.38
2019-03-28T07:29:50.638Z,444.38
2019-03-28T07:30:42.380Z,450.00
2019-03-28T07:31:41.415Z,472.50
2019-03-28T07:32:43.444Z,427.50
2019-03-28T07:33:41.366Z,421.88
2019-03-28T07:34:41.361Z,410.62
2019-03-28T07:35:41.375Z,410.62
2019-03-28T07:36:41.371Z,399.38
2019-03-28T07:37:41.325Z,399.38
2019-03-28T07:38:41.328Z,405.00
2019-03-28T07:39:41.310Z,416.25
2019-03-28T07:40:41.270Z,433.12
2019-03-28T07:41:41.299Z,444.38
2019-03-28T07:42:41.286Z,461.25
2019-03-28T07:43:41.266Z,472.50
2019-03-28T07:44:41.255Z,478.12
2019-03-28T07:45:41.254Z,489.38
2019-03-28T07:46:41.238Z,506.25
2019-03-28T07:47:41.223Z,528.75
2019-03-28T07:48:41.191Z,551.25
2019-03-28T07:49:41.196Z,573.75
2019-03-28T07:50:42.548Z,596.25
2019-03-28T07:51:41.197Z,798.75
2019-03-28T07:52:41.146Z,641.25
2019-03-28T07:53:41.138Z,663.75
2019-03-28T07:54:41.164Z,686.25
2019-03-28T07:55:41.111Z,686.25
2019-03-28T07:56:41.151Z,675.00
2019-03-28T07:57:41.489Z,658.12
2019-03-28T07:58:44.071Z,646.88
2019-03-28T07:59:44.014Z,624.38
2019-03-28T08:00:41.096Z,607.50
2019-03-28T08:01:41.080Z,635.62
2019-03-28T08:02:41.415Z,562.50
2019-03-28T08:03:41.047Z,562.50
2019-03-28T08:04:41.167Z,573.75
2019-03-28T08:05:41.028Z,596.25
2019-03-28T08:06:49.633Z,635.62
2019-03-28T08:07:45.331Z,686.25
2019-03-28T08:08:44.075Z,753.75
2019-03-28T08:09:41.008Z,810.00
2019-03-28T08:10:40.973Z,855.00
2019-03-28T08:11:40.973Z,911.25
2019-03-28T08:12:41.002Z,928.12
2019-03-28T08:13:40.969Z,1018.12
2019-03-28T08:14:40.932Z,1215.00
2019-03-28T08:15:40.911Z,1231.88
2019-03-28T08:16:40.906Z,1057.50
2019-03-28T08:17:40.883Z,1035.00
2019-03-28T08:18:40.888Z,1046.25
2019-03-28T08:19:41.709Z,1175.62
2019-03-28T08:20:40.831Z,1035.00
2019-03-28T08:21:40.858Z,939.38
2019-03-28T08:22:40.847Z,1074.38
2019-03-28T08:23:40.815Z,1068.75
2019-03-28T08:24:40.810Z,1203.75
2019-03-28T08:25:41.578Z,1271.25
2019-03-28T08:26:40.774Z,1260.00
2019-03-28T08:27:40.810Z,1254.38
2019-03-28T08:28:40.752Z,1260.00
2019-03-28T08:29:40.728Z,1085.62
2019-03-28T08:30:40.743Z,1130.62
2019-03-28T08:31:40.918Z,933.75
2019-03-28T08:32:40.726Z,866.25
2019-03-28T08:33:40.694Z,849.38
2019-03-28T08:34:40.699Z,826.88
2019-03-28T08:35:40.670Z,793.12
2019-03-28T08:36:40.667Z,759.38
2019-03-28T08:37:40.674Z,742.50
2019-03-28T08:38:40.647Z,708.75
2019-03-28T08:39:40.668Z,708.75
2019-03-28T08:40:40.660Z,652.50
2019-03-28T08:41:40.646Z,618.75
2019-03-28T08:42:40.637Z,618.75
2019-03-28T08:43:40.604Z,635.62
2019-03-28T08:44:40.654Z,669.38
2019-03-28T08:45:40.588Z,691.88
2019-03-28T08:46:40.651Z,748.12
2019-03-28T08:47:40.754Z,849.38
2019-03-28T08:48:40.589Z,911.25
2019-03-28T08:49:40.701Z,978.75
2019-03-28T08:50:40.885Z,1029.38
2019-03-28T08:51:40.589Z,984.38
2019-03-28T08:52:40.757Z,984.38
2019-03-28T08:53:40.620Z,961.88
2019-03-28T08:54:40.480Z,956.25
2019-03-28T08:55:40.471Z,967.50
2019-03-28T08:56:40.483Z,1175.62
2019-03-28T08:57:40.484Z,1186.88
2019-03-28T08:58:40.457Z,1417.50
2019-03-28T08:59:40.439Z,1558.12
2019-03-28T09:00:51.583Z,1704.38
2019-03-28T09:01:41.401Z,1580.62
2019-03-28T09:02:40.497Z,1625.62
2019-03-28T09:03:40.397Z,1895.62
2019-03-28T09:04:40.397Z,1625.62
2019-03-28T09:05:40.430Z,1704.38
2019-03-28T09:06:40.337Z,2047.50
2019-03-28T09:07:40.382Z,1546.88
2019-03-28T09:08:40.348Z,1743.75
2019-03-28T09:09:40.323Z,1681.88
2019-03-28T09:10:40.295Z,1642.50
2019-03-28T09:11:40.315Z,1558.12
2019-03-28T09:12:40.316Z,1372.50
2019-03-28T09:13:40.282Z,1333.12
2019-03-28T09:14:40.267Z,1125.00
2019-03-28T09:15:44.098Z,1001.25
2019-03-28T09:16:40.304Z,990.00
2019-03-28T09:17:40.255Z,1029.38
2019-03-28T09:18:40.256Z,1046.25
2019-03-28T09:19:40.221Z,916.88
2019-03-28T09:20:40.405Z,894.38
2019-03-28T09:21:40.204Z,855.00
2019-03-28T09:22:40.243Z,798.75
2019-03-28T09:23:40.196Z,759.38
2019-03-28T09:24:40.158Z,720.00
2019-03-28T09:25:40.169Z,686.25
2019-03-28T09:26:40.157Z,652.50
2019-03-28T09:27:40.150Z,618.75
2019-03-28T09:28:40.147Z,585.00
2019-03-28T09:29:40.097Z,545.62
2019-03-28T09:30:48.148Z,517.50
2019-03-28T09:31:41.334Z,489.38
2019-03-28T09:32:40.076Z,472.50
2019-03-28T09:33:40.796Z,450.00
2019-03-28T09:34:40.066Z,427.50
2019-03-28T09:35:40.146Z,416.25
2019-03-28T09:36:40.031Z,405.00
2019-03-28T09:37:40.464Z,399.38
2019-03-28T09:38:40.301Z,388.12
2019-03-28T09:39:39.988Z,382.50
2019-03-28T09:40:40.011Z,376.88
2019-03-28T09:41:39.996Z,371.25
2019-03-28T09:42:39.973Z,365.62
2019-03-28T09:43:54.185Z,360.00
2019-03-28T09:44:40.992Z,360.00
2019-03-28T09:45:39.982Z,360.00
2019-03-28T09:46:39.908Z,365.62
2019-03-28T09:47:39.930Z,371.25
2019-03-28T09:48:39.945Z,376.88
2019-03-28T09:49:39.899Z,371.25
2019-03-28T09:50:40.044Z,365.62
2019-03-28T09:51:39.906Z,354.38
2019-03-28T09:52:39.880Z,354.38
2019-03-28T09:53:39.898Z,343.12
2019-03-28T09:54:39.888Z,331.88
2019-03-28T09:55:39.838Z,320.62
2019-03-28T09:56:39.852Z,309.38
2019-03-28T09:57:39.837Z,303.75
2019-03-28T09:58:39.849Z,286.88
2019-03-28T09:59:39.844Z,275.62
2019-03-28T10:00:39.802Z,270.00
2019-03-28T10:01:39.836Z,264.38
2019-03-28T10:02:39.758Z,264.38
2019-03-28T10:03:39.937Z,270.00
2019-03-28T10:04:39.762Z,270.00
2019-03-28T10:05:39.743Z,275.62
2019-03-28T10:06:39.713Z,275.62
2019-03-28T10:07:39.716Z,270.00
2019-03-28T10:08:39.712Z,270.00
2019-03-28T10:09:39.925Z,270.00
2019-03-28T10:10:39.674Z,264.38
2019-03-28T10:11:39.657Z,264.38
2019-03-28T10:12:39.638Z,264.38
2019-03-28T10:13:39.676Z,258.75
2019-03-28T10:14:39.632Z,253.12
2019-03-28T10:15:39.617Z,247.50
2019-03-28T10:16:40.438Z,241.88
2019-03-28T10:17:42.358Z,241.88
2019-03-28T10:18:39.610Z,247.50
2019-03-28T10:19:39.568Z,247.50
2019-03-28T10:20:39.543Z,247.50
2019-03-28T10:21:39.534Z,247.50
2019-03-28T10:22:39.818Z,241.88
2019-03-28T10:23:39.968Z,241.88
2019-03-28T10:24:39.510Z,247.50
2019-03-28T10:25:40.560Z,253.12
2019-03-28T10:26:39.704Z,253.12
2019-03-28T10:27:39.479Z,258.75
2019-03-28T10:28:39.500Z,264.38
2019-03-28T10:29:39.469Z,264.38
2019-03-28T10:30:39.446Z,270.00
2019-03-28T10:31:39.435Z,270.00
2019-03-28T10:32:39.431Z,275.62
2019-03-28T10:33:39.433Z,275.62
2019-03-28T10:34:39.393Z,281.25
2019-03-28T10:35:39.409Z,286.88
2019-03-28T10:36:39.374Z,286.88
2019-03-28T10:37:39.366Z,286.88
2019-03-28T10:38:39.379Z,286.88
2019-03-28T10:39:39.380Z,286.88
2019-03-28T10:40:39.335Z,286.88
2019-03-28T10:41:39.981Z,292.50
2019-03-28T10:42:39.317Z,292.50
2019-03-28T10:43:39.309Z,298.12
2019-03-28T10:44:39.344Z,303.75
2019-03-28T10:45:39.292Z,303.75
2019-03-28T10:46:39.292Z,315.00
2019-03-28T10:47:39.280Z,326.25
2019-03-28T10:48:39.276Z,343.12
2019-03-28T10:49:39.240Z,354.38
2019-03-28T10:50:45.066Z,376.88
2019-03-28T10:51:40.215Z,399.38
2019-03-28T10:52:39.222Z,410.62
2019-03-28T10:53:39.216Z,427.50
2019-03-28T10:54:39.185Z,433.12
2019-03-28T10:55:39.188Z,438.75
2019-03-28T10:56:51.134Z,433.12
2019-03-28T10:57:40.147Z,433.12
2019-03-28T10:58:39.242Z,427.50
2019-03-28T10:59:39.145Z,433.12
2019-03-28T11:00:39.125Z,438.75
2019-03-28T11:01:49.121Z,450.00
2019-03-28T11:02:40.103Z,455.62
2019-03-28T11:03:39.129Z,455.62
2019-03-28T11:04:39.063Z,461.25
2019-03-28T11:05:39.088Z,466.88
2019-03-28T11:06:39.046Z,472.50
2019-03-28T11:07:39.054Z,489.38
2019-03-28T11:08:39.084Z,506.25
2019-03-28T11:09:39.023Z,523.12
2019-03-28T11:10:39.002Z,528.75
2019-03-28T11:11:39.027Z,528.75
2019-03-28T11:12:39.007Z,523.12
2019-03-28T11:13:39.006Z,523.12
2019-03-28T11:14:39.013Z,517.50
2019-03-28T11:15:38.958Z,517.50
2019-03-28T11:16:38.968Z,534.38
2019-03-28T11:17:38.930Z,551.25
2019-03-28T11:18:39.674Z,568.12
2019-03-28T11:19:38.923Z,579.38
2019-03-28T11:20:40.115Z,573.75
2019-03-28T11:21:38.916Z,556.88
2019-03-28T11:22:38.866Z,540.00
2019-03-28T11:23:38.876Z,540.00
2019-03-28T11:24:38.854Z,551.25
2019-03-28T11:25:38.854Z,562.50
2019-03-28T11:26:38.822Z,590.62
2019-03-28T11:27:38.829Z,613.12
2019-03-28T11:28:39.017Z,630.00
2019-03-28T11:29:38.783Z,635.62
2019-03-28T11:30:38.834Z,635.62
2019-03-28T11:31:46.249Z,635.62
2019-03-28T11:32:39.770Z,646.88
2019-03-28T11:33:38.819Z,669.38
2019-03-28T11:34:38.753Z,669.38
2019-03-28T11:35:38.741Z,675.00
2019-03-28T11:36:38.733Z,663.75
2019-03-28T11:37:38.754Z,646.88
2019-03-28T11:38:38.750Z,618.75
2019-03-28T11:39:39.034Z,601.88
2019-03-28T11:40:39.348Z,585.00
2019-03-28T11:41:38.690Z,585.00
2019-03-28T11:42:38.684Z,590.62
2019-03-28T11:43:38.683Z,601.88
2019-03-28T11:44:38.749Z,613.12
2019-03-28T11:45:38.630Z,630.00
2019-03-28T11:46:38.668Z,646.88
2019-03-28T11:47:38.803Z,663.75
2019-03-28T11:48:38.610Z,663.75
2019-03-28T11:49:38.604Z,675.00
2019-03-28T11:50:38.575Z,669.38
2019-03-28T11:51:38.562Z,680.62
2019-03-28T11:52:38.635Z,686.25
2019-03-28T11:53:38.545Z,703.12
2019-03-28T11:54:38.571Z,753.75
2019-03-28T11:55:38.527Z,736.88
2019-03-28T11:56:38.529Z,731.25
2019-03-28T11:57:38.831Z,731.25
2019-03-28T11:58:38.756Z,731.25
2019-03-28T11:59:38.524Z,708.75
2019-03-28T12:00:38.490Z,686.25
2019-03-28T12:01:38.456Z,618.75
2019-03-28T12:02:38.440Z,601.88
2019-03-28T12:03:38.438Z,551.25
2019-03-28T12:04:38.798Z,540.00
2019-03-28T12:05:38.418Z,523.12
2019-03-28T12:06:38.410Z,517.50
2019-03-28T12:07:38.416Z,528.75
2019-03-28T12:08:38.371Z,551.25
2019-03-28T12:09:38.408Z,568.12
2019-03-28T12:10:38.900Z,562.50
2019-03-28T12:11:38.356Z,568.12
2019-03-28T12:12:38.337Z,568.12
2019-03-28T12:13:44.660Z,568.12
2019-03-28T12:14:39.335Z,551.25
2019-03-28T12:15:38.320Z,551.25
2019-03-28T12:16:38.354Z,540.00
2019-03-28T12:17:38.282Z,534.38
2019-03-28T12:18:38.295Z,540.00
2019-03-28T12:19:38.300Z,545.62
2019-03-28T12:20:38.273Z,540.00
2019-03-28T12:21:38.309Z,506.25
2019-03-28T12:22:38.236Z,478.12
2019-03-28T12:23:38.216Z,450.00
2019-03-28T12:24:38.295Z,438.75
2019-03-28T12:25:38.211Z,433.12
2019-03-28T12:26:38.199Z,461.25
2019-03-28T12:27:38.213Z,511.88
2019-03-28T12:28:38.151Z,551.25
2019-03-28T12:29:38.224Z,551.25
2019-03-28T12:30:38.137Z,528.75
2019-03-28T12:31:38.158Z,517.50
2019-03-28T12:32:38.157Z,506.25
2019-03-28T12:33:38.090Z,517.50
2019-03-28T12:34:38.161Z,495.00
2019-03-28T12:35:38.085Z,495.00
2019-03-28T12:36:38.102Z,466.88
2019-03-28T12:37:38.067Z,461.25
2019-03-28T12:38:38.075Z,455.62
2019-03-28T12:39:38.112Z,444.38
2019-03-28T12:40:38.069Z,450.00
2019-03-28T12:41:38.060Z,472.50
2019-03-28T12:42:38.045Z,466.88
2019-03-28T12:43:38.294Z,495.00
2019-03-28T12:44:38.111Z,528.75
2019-03-28T12:45:38.033Z,540.00
2019-03-28T12:46:38.009Z,556.88
2019-03-28T12:47:42.812Z,556.88
2019-03-28T12:48:38.967Z,551.25
2019-03-28T12:49:37.958Z,551.25
2019-03-28T12:50:37.947Z,540.00